sensor_id;sensor_type;location;lat;lon;timestamp;temperature;humidity
20862;DHT22;10591;52.532;13.348;2024-02-04T00:01:13;7.54;82.52
20862;DHT22;10591;52.532;13.348;2024-02-04T00:03:43;7.54;82.03
20862;DHT22;10591;52.532;13.348;2024-02-04T00:06:14;7.52;82.26
20862;DHT22;10591;52.532;13.348;2024-02-04T00:08:45;7.58;82.08
20862;DHT22;10591;52.532;13.348;2024-02-04T00:11:15;7.60;82.25
20862;DHT22;10591;52.532;13.348;2024-02-04T00:13:46;7.62;82.47
20862;DHT22;10591;52.532;13.348;2024-02-04T00:16:18;7.74;81.88
20862;DHT22;10591;52.532;13.348;2024-02-04T00:18:48;7.78;81.93
20862;DHT22;10591;52.532;13.348;2024-02-04T00:21:19;7.62;82.04
20862;DHT22;10591;52.532;13.348;2024-02-04T00:23:49;7.64;81.72
20862;DHT22;10591;52.532;13.348;2024-02-04T00:26:20;7.71;81.58
20862;DHT22;10591;52.532;13.348;2024-02-04T00:28:51;7.61;81.92
20862;DHT22;10591;52.532;13.348;2024-02-04T00:31:21;7.60;81.52
20862;DHT22;10591;52.532;13.348;2024-02-04T00:33:52;7.56;81.83
20862;DHT22;10591;52.532;13.348;2024-02-04T00:36:23;7.47;82.24
20862;DHT22;10591;52.532;13.348;2024-02-04T00:38:53;7.40;82.37
20862;DHT22;10591;52.532;13.348;2024-02-04T00:41:25;7.34;82.38
20862;DHT22;10591;52.532;13.348;2024-02-04T00:43:55;7.23;81.88
20862;DHT22;10591;52.532;13.348;2024-02-04T00:46:26;7.20;81.71
20862;DHT22;10591;52.532;13.348;2024-02-04T00:48:57;7.10;81.90
20862;DHT22;10591;52.532;13.348;2024-02-04T00:51:28;7.01;82.09
20862;DHT22;10591;52.532;13.348;2024-02-04T00:53:58;6.88;82.53
20862;DHT22;10591;52.532;13.348;2024-02-04T00:56:29;6.89;82.02
20862;DHT22;10591;52.532;13.348;2024-02-04T00:58:59;6.77;82.69
20862;DHT22;10591;52.532;13.348;2024-02-04T01:01:30;6.78;82.25
20862;DHT22;10591;52.532;13.348;2024-02-04T01:04:01;6.72;82.30
20862;DHT22;10591;52.532;13.348;2024-02-04T01:06:32;6.72;81.93
20862;DHT22;10591;52.532;13.348;2024-02-04T01:09:04;6.59;82.28
20862;DHT22;10591;52.532;13.348;2024-02-04T01:11:35;6.62;81.98
20862;DHT22;10591;52.532;13.348;2024-02-04T01:14:05;6.53;82.38
20862;DHT22;10591;52.532;13.348;2024-02-04T01:16:36;6.58;81.83
20862;DHT22;10591;52.532;13.348;2024-02-04T01:19:06;6.48;82.21
20862;DHT22;10591;52.532;13.348;2024-02-04T01:21:37;6.38;82.63
20862;DHT22;10591;52.532;13.348;2024-02-04T01:24:08;6.30;82.93
20862;DHT22;10591;52.532;13.348;2024-02-04T01:26:38;6.44;82.39
20862;DHT22;10591;52.532;13.348;2024-02-04T01:29:09;6.51;82.85
20862;DHT22;10591;52.532;13.348;2024-02-04T01:31:40;6.64;82.36
20862;DHT22;10591;52.532;13.348;2024-02-04T01:34:10;6.68;82.06
20862;DHT22;10591;52.532;13.348;2024-02-04T01:36:41;6.68;82.44
20862;DHT22;10591;52.532;13.348;2024-02-04T01:39:12;6.63;82.59
20862;DHT22;10591;52.532;13.348;2024-02-04T01:41:43;6.60;82.42
20862;DHT22;10591;52.532;13.348;2024-02-04T01:44:15;6.48;83.29
20862;DHT22;10591;52.532;13.348;2024-02-04T01:46:50;6.42;83.55
20862;DHT22;10591;52.532;13.348;2024-02-04T01:49:21;6.50;83.47
20862;DHT22;10591;52.532;13.348;2024-02-04T01:51:52;6.34;84.04
20862;DHT22;10591;52.532;13.348;2024-02-04T01:54:24;6.36;83.88
20862;DHT22;10591;52.532;13.348;2024-02-04T01:56:55;6.32;84.07
20862;DHT22;10591;52.532;13.348;2024-02-04T01:59:26;6.37;84.14
20862;DHT22;10591;52.532;13.348;2024-02-04T02:02:00;6.30;84.19
20862;DHT22;10591;52.532;13.348;2024-02-04T02:04:31;6.44;83.85
20862;DHT22;10591;52.532;13.348;2024-02-04T02:07:02;6.38;84.23
20862;DHT22;10591;52.532;13.348;2024-02-04T02:09:33;6.32;84.33
20862;DHT22;10591;52.532;13.348;2024-02-04T02:12:18;6.21;84.89
20862;DHT22;10591;52.532;13.348;2024-02-04T02:14:57;6.29;84.35
20862;DHT22;10591;52.532;13.348;2024-02-04T02:17:31;6.30;84.40
20862;DHT22;10591;52.532;13.348;2024-02-04T02:20:10;6.24;84.61
20862;DHT22;10591;52.532;13.348;2024-02-04T02:22:45;6.18;84.60
20862;DHT22;10591;52.532;13.348;2024-02-04T02:25:10;6.24;84.53
20862;DHT22;10591;52.532;13.348;2024-02-04T02:27:50;6.16;84.73
20862;DHT22;10591;52.532;13.348;2024-02-04T02:30:22;6.18;84.44
20862;DHT22;10591;52.532;13.348;2024-02-04T02:32:52;6.12;84.88
20862;DHT22;10591;52.532;13.348;2024-02-04T02:35:23;6.19;84.70
20862;DHT22;10591;52.532;13.348;2024-02-04T02:38:02;6.14;84.69
20862;DHT22;10591;52.532;13.348;2024-02-04T02:40:47;6.18;84.80
20862;DHT22;10591;52.532;13.348;2024-02-04T02:43:19;6.11;84.83
20862;DHT22;10591;52.532;13.348;2024-02-04T02:45:51;6.30;84.59
20862;DHT22;10591;52.532;13.348;2024-02-04T02:48:22;6.30;84.49
20862;DHT22;10591;52.532;13.348;2024-02-04T02:50:54;6.24;84.78
20862;DHT22;10591;52.532;13.348;2024-02-04T02:53:24;6.31;84.59
20862;DHT22;10591;52.532;13.348;2024-02-04T02:55:55;6.44;84.29
20862;DHT22;10591;52.532;13.348;2024-02-04T02:58:26;6.38;84.00
20862;DHT22;10591;52.532;13.348;2024-02-04T03:00:56;6.48;83.91
20862;DHT22;10591;52.532;13.348;2024-02-04T03:03:27;6.49;84.01
20862;DHT22;10591;52.532;13.348;2024-02-04T03:05:57;6.58;84.14
20862;DHT22;10591;52.532;13.348;2024-02-04T03:08:28;6.66;83.70
20862;DHT22;10591;52.532;13.348;2024-02-04T03:10:59;6.70;84.08
20862;DHT22;10591;52.532;13.348;2024-02-04T03:13:29;6.64;84.23
20862;DHT22;10591;52.532;13.348;2024-02-04T03:16:00;6.78;84.01
20862;DHT22;10591;52.532;13.348;2024-02-04T03:18:31;6.85;84.14
20862;DHT22;10591;52.532;13.348;2024-02-04T03:21:02;6.84;84.09
20862;DHT22;10591;52.532;13.348;2024-02-04T03:23:32;6.73;84.50
20862;DHT22;10591;52.532;13.348;2024-02-04T03:26:03;6.82;84.52
20862;DHT22;10591;52.532;13.348;2024-02-04T03:28:34;6.80;84.38
20862;DHT22;10591;52.532;13.348;2024-02-04T03:31:04;6.72;84.82
20862;DHT22;10591;52.532;13.348;2024-02-04T03:33:35;6.86;84.26
20862;DHT22;10591;52.532;13.348;2024-02-04T03:36:06;6.72;84.52
20862;DHT22;10591;52.532;13.348;2024-02-04T03:38:36;6.78;84.46
20862;DHT22;10591;52.532;13.348;2024-02-04T03:41:07;6.80;84.45
20862;DHT22;10591;52.532;13.348;2024-02-04T03:43:37;6.90;84.08
20862;DHT22;10591;52.532;13.348;2024-02-04T03:46:08;6.83;84.20
20862;DHT22;10591;52.532;13.348;2024-02-04T03:48:39;6.78;84.21
20862;DHT22;10591;52.532;13.348;2024-02-04T03:51:16;6.82;84.31
20862;DHT22;10591;52.532;13.348;2024-02-04T03:53:49;6.80;84.15
20862;DHT22;10591;52.532;13.348;2024-02-04T03:56:21;6.77;84.19
20862;DHT22;10591;52.532;13.348;2024-02-04T03:58:51;6.86;83.84
20862;DHT22;10591;52.532;13.348;2024-02-04T04:01:22;6.79;83.87
20862;DHT22;10591;52.532;13.348;2024-02-04T04:03:53;6.72;84.04
20862;DHT22;10591;52.532;13.348;2024-02-04T04:06:23;6.60;84.38
20862;DHT22;10591;52.532;13.348;2024-02-04T04:08:54;6.61;84.24
20862;DHT22;10591;52.532;13.348;2024-02-04T04:11:27;6.59;84.33
20862;DHT22;10591;52.532;13.348;2024-02-04T04:13:57;6.55;84.23
20862;DHT22;10591;52.532;13.348;2024-02-04T04:16:27;6.48;84.35
20862;DHT22;10591;52.532;13.348;2024-02-04T04:18:58;6.38;84.83
20862;DHT22;10591;52.532;13.348;2024-02-04T04:21:30;6.28;85.04
20862;DHT22;10591;52.532;13.348;2024-02-04T04:24:01;6.29;85.17
20862;DHT22;10591;52.532;13.348;2024-02-04T04:26:31;6.28;84.87
20862;DHT22;10591;52.532;13.348;2024-02-04T04:29:03;6.24;85.00
20862;DHT22;10591;52.532;13.348;2024-02-04T04:31:33;6.18;85.08
20862;DHT22;10591;52.532;13.348;2024-02-04T04:34:04;6.16;85.02
20862;DHT22;10591;52.532;13.348;2024-02-04T04:36:35;6.16;85.05
20862;DHT22;10591;52.532;13.348;2024-02-04T04:39:05;6.12;85.16
20862;DHT22;10591;52.532;13.348;2024-02-04T04:41:36;6.10;85.08
20862;DHT22;10591;52.532;13.348;2024-02-04T04:44:06;6.12;84.95
20862;DHT22;10591;52.532;13.348;2024-02-04T04:46:40;6.04;85.20
20862;DHT22;10591;52.532;13.348;2024-02-04T04:49:10;6.02;85.13
20862;DHT22;10591;52.532;13.348;2024-02-04T04:51:45;6.00;84.97
20862;DHT22;10591;52.532;13.348;2024-02-04T04:54:16;6.19;84.64
20862;DHT22;10591;52.532;13.348;2024-02-04T04:56:47;6.26;84.02
20862;DHT22;10591;52.532;13.348;2024-02-04T04:59:17;6.29;83.77
20862;DHT22;10591;52.532;13.348;2024-02-04T05:01:49;6.33;83.36
20862;DHT22;10591;52.532;13.348;2024-02-04T05:04:19;6.20;83.91
20862;DHT22;10591;52.532;13.348;2024-02-04T05:06:52;6.06;84.09
20862;DHT22;10591;52.532;13.348;2024-02-04T05:09:22;6.05;84.38
20862;DHT22;10591;52.532;13.348;2024-02-04T05:11:53;6.02;84.29
20862;DHT22;10591;52.532;13.348;2024-02-04T05:14:23;5.88;84.57
20862;DHT22;10591;52.532;13.348;2024-02-04T05:16:54;5.94;84.47
20862;DHT22;10591;52.532;13.348;2024-02-04T05:19:24;6.02;84.11
20862;DHT22;10591;52.532;13.348;2024-02-04T05:21:55;5.95;84.36
20862;DHT22;10591;52.532;13.348;2024-02-04T05:24:26;5.98;84.23
20862;DHT22;10591;52.532;13.348;2024-02-04T05:26:56;6.02;84.42
20862;DHT22;10591;52.532;13.348;2024-02-04T05:29:27;5.97;84.27
20862;DHT22;10591;52.532;13.348;2024-02-04T05:31:57;6.02;84.42
20862;DHT22;10591;52.532;13.348;2024-02-04T05:34:28;6.03;84.08
20862;DHT22;10591;52.532;13.348;2024-02-04T05:37:00;6.04;83.97
20862;DHT22;10591;52.532;13.348;2024-02-04T05:39:31;6.11;83.71
20862;DHT22;10591;52.532;13.348;2024-02-04T05:42:02;5.98;84.00
20862;DHT22;10591;52.532;13.348;2024-02-04T05:44:33;5.99;83.84
20862;DHT22;10591;52.532;13.348;2024-02-04T05:47:03;6.09;83.70
20862;DHT22;10591;52.532;13.348;2024-02-04T05:49:35;6.04;83.55
20862;DHT22;10591;52.532;13.348;2024-02-04T05:52:06;6.02;83.57
20862;DHT22;10591;52.532;13.348;2024-02-04T05:54:40;6.16;83.07
20862;DHT22;10591;52.532;13.348;2024-02-04T05:57:10;6.12;82.88
20862;DHT22;10591;52.532;13.348;2024-02-04T05:59:41;6.14;83.02
20862;DHT22;10591;52.532;13.348;2024-02-04T06:02:12;6.20;83.03
20862;DHT22;10591;52.532;13.348;2024-02-04T06:04:42;6.07;83.14
20862;DHT22;10591;52.532;13.348;2024-02-04T06:07:13;6.14;83.20
20862;DHT22;10591;52.532;13.348;2024-02-04T06:09:44;6.10;83.40
20862;DHT22;10591;52.532;13.348;2024-02-04T06:12:14;6.29;82.89
20862;DHT22;10591;52.532;13.348;2024-02-04T06:14:45;6.24;83.04
20862;DHT22;10591;52.532;13.348;2024-02-04T06:17:15;6.28;82.91
20862;DHT22;10591;52.532;13.348;2024-02-04T06:19:46;6.42;82.94
20862;DHT22;10591;52.532;13.348;2024-02-04T06:22:16;6.28;82.93
20862;DHT22;10591;52.532;13.348;2024-02-04T06:24:47;6.28;83.26
20862;DHT22;10591;52.532;13.348;2024-02-04T06:27:19;6.14;83.64
20862;DHT22;10591;52.532;13.348;2024-02-04T06:29:50;6.06;83.74
20862;DHT22;10591;52.532;13.348;2024-02-04T06:32:20;6.08;83.88
20862;DHT22;10591;52.532;13.348;2024-02-04T06:34:52;5.98;84.14
20862;DHT22;10591;52.532;13.348;2024-02-04T06:37:24;6.00;84.56
20862;DHT22;10591;52.532;13.348;2024-02-04T06:39:55;5.98;84.58
20862;DHT22;10591;52.532;13.348;2024-02-04T06:42:25;6.08;84.48
20862;DHT22;10591;52.532;13.348;2024-02-04T06:44:56;5.90;85.11
20862;DHT22;10591;52.532;13.348;2024-02-04T06:47:26;6.06;84.94
20862;DHT22;10591;52.532;13.348;2024-02-04T06:49:57;5.90;85.17
20862;DHT22;10591;52.532;13.348;2024-02-04T06:52:28;5.98;85.49
20862;DHT22;10591;52.532;13.348;2024-02-04T06:55:00;5.90;85.62
20862;DHT22;10591;52.532;13.348;2024-02-04T06:57:30;5.98;85.42
20862;DHT22;10591;52.532;13.348;2024-02-04T07:00:02;5.91;85.54
20862;DHT22;10591;52.532;13.348;2024-02-04T07:02:35;5.95;85.50
20862;DHT22;10591;52.532;13.348;2024-02-04T07:05:05;6.06;85.23
20862;DHT22;10591;52.532;13.348;2024-02-04T07:07:36;6.02;85.60
20862;DHT22;10591;52.532;13.348;2024-02-04T07:10:07;6.08;85.35
20862;DHT22;10591;52.532;13.348;2024-02-04T07:12:38;6.10;85.10
20862;DHT22;10591;52.532;13.348;2024-02-04T07:15:11;6.19;84.92
20862;DHT22;10591;52.532;13.348;2024-02-04T07:17:41;6.17;84.96
20862;DHT22;10591;52.532;13.348;2024-02-04T07:20:11;6.26;84.59
20862;DHT22;10591;52.532;13.348;2024-02-04T07:22:42;6.30;84.51
20862;DHT22;10591;52.532;13.348;2024-02-04T07:25:13;6.22;84.61
20862;DHT22;10591;52.532;13.348;2024-02-04T07:27:44;6.33;84.36
20862;DHT22;10591;52.532;13.348;2024-02-04T07:30:14;6.23;84.61
20862;DHT22;10591;52.532;13.348;2024-02-04T07:32:45;6.25;84.36
20862;DHT22;10591;52.532;13.348;2024-02-04T07:35:15;6.35;84.09
20862;DHT22;10591;52.532;13.348;2024-02-04T07:37:46;6.40;84.10
20862;DHT22;10591;52.532;13.348;2024-02-04T07:40:17;6.40;83.84
20862;DHT22;10591;52.532;13.348;2024-02-04T07:42:48;6.38;83.91
20862;DHT22;10591;52.532;13.348;2024-02-04T07:45:18;6.42;83.87
20862;DHT22;10591;52.532;13.348;2024-02-04T07:47:49;6.55;83.04
20862;DHT22;10591;52.532;13.348;2024-02-04T07:50:19;6.68;82.86
20862;DHT22;10591;52.532;13.348;2024-02-04T07:52:51;6.66;82.91
20862;DHT22;10591;52.532;13.348;2024-02-04T07:55:22;6.64;82.71
20862;DHT22;10591;52.532;13.348;2024-02-04T07:57:53;6.70;82.68
20862;DHT22;10591;52.532;13.348;2024-02-04T08:00:24;6.72;82.54
20862;DHT22;10591;52.532;13.348;2024-02-04T08:02:55;6.81;82.33
20862;DHT22;10591;52.532;13.348;2024-02-04T08:05:25;6.82;82.10
20862;DHT22;10591;52.532;13.348;2024-02-04T08:07:58;6.78;82.58
20862;DHT22;10591;52.532;13.348;2024-02-04T08:10:29;6.92;81.98
20862;DHT22;10591;52.532;13.348;2024-02-04T08:12:59;7.02;81.52
20862;DHT22;10591;52.532;13.348;2024-02-04T08:15:30;6.94;81.74
20862;DHT22;10591;52.532;13.348;2024-02-04T08:18:00;7.08;81.35
20862;DHT22;10591;52.532;13.348;2024-02-04T08:20:32;7.15;81.23
20862;DHT22;10591;52.532;13.348;2024-02-04T08:23:03;7.24;80.90
20862;DHT22;10591;52.532;13.348;2024-02-04T08:25:34;7.14;81.08
20862;DHT22;10591;52.532;13.348;2024-02-04T08:28:04;7.22;80.76
20862;DHT22;10591;52.532;13.348;2024-02-04T08:30:35;7.35;80.08
20862;DHT22;10591;52.532;13.348;2024-02-04T08:33:06;7.26;79.90
20862;DHT22;10591;52.532;13.348;2024-02-04T08:35:36;7.25;80.16
20862;DHT22;10591;52.532;13.348;2024-02-04T08:38:07;7.40;79.49
20862;DHT22;10591;52.532;13.348;2024-02-04T08:40:38;7.42;78.91
20862;DHT22;10591;52.532;13.348;2024-02-04T08:43:08;7.50;78.34
20862;DHT22;10591;52.532;13.348;2024-02-04T08:45:39;7.40;78.46
20862;DHT22;10591;52.532;13.348;2024-02-04T08:48:09;7.43;78.43
20862;DHT22;10591;52.532;13.348;2024-02-04T08:50:40;7.42;78.03
20862;DHT22;10591;52.532;13.348;2024-02-04T08:53:11;7.56;77.91
20862;DHT22;10591;52.532;13.348;2024-02-04T08:55:41;7.59;77.54
20862;DHT22;10591;52.532;13.348;2024-02-04T08:58:12;7.48;78.07
20862;DHT22;10591;52.532;13.348;2024-02-04T09:00:44;7.70;77.64
20862;DHT22;10591;52.532;13.348;2024-02-04T09:03:15;7.68;77.34
20862;DHT22;10591;52.532;13.348;2024-02-04T09:05:45;7.75;77.11
20862;DHT22;10591;52.532;13.348;2024-02-04T09:08:16;7.70;77.07
20862;DHT22;10591;52.532;13.348;2024-02-04T09:10:47;7.68;77.04
20862;DHT22;10591;52.532;13.348;2024-02-04T09:13:17;7.74;77.21
20862;DHT22;10591;52.532;13.348;2024-02-04T09:15:49;7.68;77.29
20862;DHT22;10591;52.532;13.348;2024-02-04T09:18:20;7.60;77.22
20862;DHT22;10591;52.532;13.348;2024-02-04T09:20:51;7.96;76.73
20862;DHT22;10591;52.532;13.348;2024-02-04T09:23:22;7.89;76.39
20862;DHT22;10591;52.532;13.348;2024-02-04T09:25:53;7.80;76.74
20862;DHT22;10591;52.532;13.348;2024-02-04T09:28:24;7.94;75.80
20862;DHT22;10591;52.532;13.348;2024-02-04T09:30:54;8.08;75.90
20862;DHT22;10591;52.532;13.348;2024-02-04T09:33:25;8.12;75.23
20862;DHT22;10591;52.532;13.348;2024-02-04T09:35:56;8.04;75.56
20862;DHT22;10591;52.532;13.348;2024-02-04T09:38:27;8.04;75.25
20862;DHT22;10591;52.532;13.348;2024-02-04T09:40:58;8.14;74.92
20862;DHT22;10591;52.532;13.348;2024-02-04T09:43:31;8.22;74.74
20862;DHT22;10591;52.532;13.348;2024-02-04T09:46:03;8.17;74.94
20862;DHT22;10591;52.532;13.348;2024-02-04T09:48:36;8.15;74.59
20862;DHT22;10591;52.532;13.348;2024-02-04T09:51:08;8.24;74.23
20862;DHT22;10591;52.532;13.348;2024-02-04T09:53:43;8.26;74.00
20862;DHT22;10591;52.532;13.348;2024-02-04T09:56:14;8.34;73.81
20862;DHT22;10591;52.532;13.348;2024-02-04T09:58:47;8.50;72.78
20862;DHT22;10591;52.532;13.348;2024-02-04T10:01:20;8.31;73.03
20862;DHT22;10591;52.532;13.348;2024-02-04T10:03:52;8.25;73.28
20862;DHT22;10591;52.532;13.348;2024-02-04T10:06:23;8.46;72.36
20862;DHT22;10591;52.532;13.348;2024-02-04T10:08:54;8.48;72.47
20862;DHT22;10591;52.532;13.348;2024-02-04T10:11:25;8.34;72.71
20862;DHT22;10591;52.532;13.348;2024-02-04T10:13:55;8.51;72.32
20862;DHT22;10591;52.532;13.348;2024-02-04T10:16:45;8.35;72.58
20862;DHT22;10591;52.532;13.348;2024-02-04T10:19:16;8.38;72.35
20862;DHT22;10591;52.532;13.348;2024-02-04T10:21:57;8.42;71.97
20862;DHT22;10591;52.532;13.348;2024-02-04T10:24:19;8.52;71.25
20862;DHT22;10591;52.532;13.348;2024-02-04T10:26:51;8.54;71.49
20862;DHT22;10591;52.532;13.348;2024-02-04T10:29:24;8.62;70.82
20862;DHT22;10591;52.532;13.348;2024-02-04T10:31:56;8.78;70.49
20862;DHT22;10591;52.532;13.348;2024-02-04T10:34:28;8.72;70.15
20862;DHT22;10591;52.532;13.348;2024-02-04T10:36:59;8.79;70.17
20862;DHT22;10591;52.532;13.348;2024-02-04T10:39:30;8.67;70.04
20862;DHT22;10591;52.532;13.348;2024-02-04T10:42:02;8.84;69.67
20862;DHT22;10591;52.532;13.348;2024-02-04T10:44:35;8.92;69.69
20862;DHT22;10591;52.532;13.348;2024-02-04T10:47:07;8.79;69.56
20862;DHT22;10591;52.532;13.348;2024-02-04T10:49:41;8.80;69.74
20862;DHT22;10591;52.532;13.348;2024-02-04T10:52:14;8.74;69.74
20862;DHT22;10591;52.532;13.348;2024-02-04T10:54:45;8.86;69.38
20862;DHT22;10591;52.532;13.348;2024-02-04T10:57:21;8.88;69.23
20862;DHT22;10591;52.532;13.348;2024-02-04T10:59:57;8.83;69.27
20862;DHT22;10591;52.532;13.348;2024-02-04T11:02:28;8.86;69.70
20862;DHT22;10591;52.532;13.348;2024-02-04T11:05:00;8.76;69.74
20862;DHT22;10591;52.532;13.348;2024-02-04T11:07:34;8.92;68.89
20862;DHT22;10591;52.532;13.348;2024-02-04T11:10:05;8.88;69.30
20862;DHT22;10591;52.532;13.348;2024-02-04T11:12:37;8.85;69.22
20862;DHT22;10591;52.532;13.348;2024-02-04T11:15:10;8.56;69.81
20862;DHT22;10591;52.532;13.348;2024-02-04T11:20:43;8.62;70.24
20862;DHT22;10591;52.532;13.348;2024-02-04T11:25:57;8.80;70.04
20862;DHT22;10591;52.532;13.348;2024-02-04T11:28:28;10.78;81.43
20862;DHT22;10591;52.532;13.348;2024-02-04T11:30:59;10.94;70.53
20862;DHT22;10591;52.532;13.348;2024-02-04T11:33:31;11.45;66.69
20862;DHT22;10591;52.532;13.348;2024-02-04T11:36:13;11.94;64.12
20862;DHT22;10591;52.532;13.348;2024-02-04T11:38:49;11.81;63.22
20862;DHT22;10591;52.532;13.348;2024-02-04T11:41:24;11.26;61.83
20862;DHT22;10591;52.532;13.348;2024-02-04T11:43:57;10.42;63.43
20862;DHT22;10591;52.532;13.348;2024-02-04T11:46:38;9.80;65.39
20862;DHT22;10591;52.532;13.348;2024-02-04T11:49:18;9.59;66.30
20862;DHT22;10591;52.532;13.348;2024-02-04T11:51:52;9.08;68.19
20862;DHT22;10591;52.532;13.348;2024-02-04T11:54:26;9.15;67.23
20862;DHT22;10591;52.532;13.348;2024-02-04T11:56:58;8.90;67.92
20862;DHT22;10591;52.532;13.348;2024-02-04T11:59:30;9.04;67.80
20862;DHT22;10591;52.532;13.348;2024-02-04T12:02:06;9.04;67.83
20862;DHT22;10591;52.532;13.348;2024-02-04T12:04:37;9.12;67.22
20862;DHT22;10591;52.532;13.348;2024-02-04T12:07:10;9.12;67.47
20862;DHT22;10591;52.532;13.348;2024-02-04T12:09:43;9.10;67.16
20862;DHT22;10591;52.532;13.348;2024-02-04T12:12:14;8.91;66.96
20862;DHT22;10591;52.532;13.348;2024-02-04T12:14:47;8.94;67.35
20862;DHT22;10591;52.532;13.348;2024-02-04T12:17:19;8.92;67.21
20862;DHT22;10591;52.532;13.348;2024-02-04T12:19:50;8.65;68.38
20862;DHT22;10591;52.532;13.348;2024-02-04T12:28:08;8.38;68.60
20862;DHT22;10591;52.532;13.348;2024-02-04T12:30:39;8.48;68.83
20862;DHT22;10591;52.532;13.348;2024-02-04T12:33:10;8.39;68.94
20862;DHT22;10591;52.532;13.348;2024-02-04T12:35:40;8.40;69.00
20862;DHT22;10591;52.532;13.348;2024-02-04T12:38:11;8.47;68.26
20862;DHT22;10591;52.532;13.348;2024-02-04T12:40:43;8.28;68.80
20862;DHT22;10591;52.532;13.348;2024-02-04T12:43:14;8.42;68.79
20862;DHT22;10591;52.532;13.348;2024-02-04T12:45:44;8.44;68.93
20862;DHT22;10591;52.532;13.348;2024-02-04T12:48:15;8.40;68.74
20862;DHT22;10591;52.532;13.348;2024-02-04T12:50:47;8.44;68.55
20862;DHT22;10591;52.532;13.348;2024-02-04T12:53:19;8.39;68.70
20862;DHT22;10591;52.532;13.348;2024-02-04T12:55:57;8.38;68.01
20862;DHT22;10591;52.532;13.348;2024-02-04T12:58:25;8.51;68.17
20862;DHT22;10591;52.532;13.348;2024-02-04T13:01:02;8.53;67.85
20862;DHT22;10591;52.532;13.348;2024-02-04T13:03:34;8.53;67.98
20862;DHT22;10591;52.532;13.348;2024-02-04T13:06:08;8.54;67.87
20862;DHT22;10591;52.532;13.348;2024-02-04T13:08:39;8.52;67.68
20862;DHT22;10591;52.532;13.348;2024-02-04T13:11:09;8.50;67.89
20862;DHT22;10591;52.532;13.348;2024-02-04T13:13:40;8.40;68.14
20862;DHT22;10591;52.532;13.348;2024-02-04T13:16:11;8.38;68.65
20862;DHT22;10591;52.532;13.348;2024-02-04T13:18:42;8.51;67.92
20862;DHT22;10591;52.532;13.348;2024-02-04T13:21:12;8.40;68.33
20862;DHT22;10591;52.532;13.348;2024-02-04T13:23:43;8.38;68.27
20862;DHT22;10591;52.532;13.348;2024-02-04T13:26:14;8.30;68.45
20862;DHT22;10591;52.532;13.348;2024-02-04T13:28:45;8.30;68.60
20862;DHT22;10591;52.532;13.348;2024-02-04T13:31:17;8.34;68.40
20862;DHT22;10591;52.532;13.348;2024-02-04T13:33:48;8.44;68.47
20862;DHT22;10591;52.532;13.348;2024-02-04T13:36:18;8.27;69.03
20862;DHT22;10591;52.532;13.348;2024-02-04T13:38:49;8.28;69.17
20862;DHT22;10591;52.532;13.348;2024-02-04T13:41:20;8.21;69.60
20862;DHT22;10591;52.532;13.348;2024-02-04T13:43:50;8.18;69.44
20862;DHT22;10591;52.532;13.348;2024-02-04T13:46:21;8.16;69.38
20862;DHT22;10591;52.532;13.348;2024-02-04T13:48:51;8.18;69.15
20862;DHT22;10591;52.532;13.348;2024-02-04T13:51:22;8.16;69.31
20862;DHT22;10591;52.532;13.348;2024-02-04T13:53:54;8.31;69.63
20862;DHT22;10591;52.532;13.348;2024-02-04T13:56:25;8.40;68.79
20862;DHT22;10591;52.532;13.348;2024-02-04T13:58:55;8.26;69.11
20862;DHT22;10591;52.532;13.348;2024-02-04T14:01:26;8.24;69.67
20862;DHT22;10591;52.532;13.348;2024-02-04T14:03:56;8.25;69.63
20862;DHT22;10591;52.532;13.348;2024-02-04T14:06:27;8.19;69.81
20862;DHT22;10591;52.532;13.348;2024-02-04T14:08:58;8.12;70.09
20862;DHT22;10591;52.532;13.348;2024-02-04T14:11:28;8.23;69.52
20862;DHT22;10591;52.532;13.348;2024-02-04T14:13:59;8.14;70.25
20862;DHT22;10591;52.532;13.348;2024-02-04T14:16:30;8.24;70.00
20862;DHT22;10591;52.532;13.348;2024-02-04T14:19:01;8.20;70.32
20862;DHT22;10591;52.532;13.348;2024-02-04T14:21:32;8.28;70.04
20862;DHT22;10591;52.532;13.348;2024-02-04T14:24:03;8.30;70.36
20862;DHT22;10591;52.532;13.348;2024-02-04T14:26:35;8.28;70.46
20862;DHT22;10591;52.532;13.348;2024-02-04T14:29:05;8.22;70.59
20862;DHT22;10591;52.532;13.348;2024-02-04T14:31:36;8.20;70.40
20862;DHT22;10591;52.532;13.348;2024-02-04T14:34:07;8.30;70.39
20862;DHT22;10591;52.532;13.348;2024-02-04T14:36:38;8.35;70.01
20862;DHT22;10591;52.532;13.348;2024-02-04T14:39:08;8.20;70.95
20862;DHT22;10591;52.532;13.348;2024-02-04T14:41:40;8.19;70.90
20862;DHT22;10591;52.532;13.348;2024-02-04T14:44:10;8.24;70.77
20862;DHT22;10591;52.532;13.348;2024-02-04T14:46:41;8.27;70.73
20862;DHT22;10591;52.532;13.348;2024-02-04T14:49:12;8.33;70.77
20862;DHT22;10591;52.532;13.348;2024-02-04T14:51:42;8.26;70.78
20862;DHT22;10591;52.532;13.348;2024-02-04T14:54:13;8.37;70.91
20862;DHT22;10591;52.532;13.348;2024-02-04T14:56:44;8.32;70.69
20862;DHT22;10591;52.532;13.348;2024-02-04T14:59:16;8.22;70.91
20862;DHT22;10591;52.532;13.348;2024-02-04T15:01:48;8.25;70.99
20862;DHT22;10591;52.532;13.348;2024-02-04T15:04:20;8.23;71.06
20862;DHT22;10591;52.532;13.348;2024-02-04T15:06:53;8.23;71.30
20862;DHT22;10591;52.532;13.348;2024-02-04T15:09:23;8.29;70.84
20862;DHT22;10591;52.532;13.348;2024-02-04T15:11:54;8.34;70.87
20862;DHT22;10591;52.532;13.348;2024-02-04T15:14:25;8.32;70.87
20862;DHT22;10591;52.532;13.348;2024-02-04T15:16:57;8.32;71.05
20862;DHT22;10591;52.532;13.348;2024-02-04T15:19:28;8.26;71.23
20862;DHT22;10591;52.532;13.348;2024-02-04T15:21:59;8.25;70.88
20862;DHT22;10591;52.532;13.348;2024-02-04T15:24:31;8.18;71.45
20862;DHT22;10591;52.532;13.348;2024-02-04T15:27:02;8.34;71.00
20862;DHT22;10591;52.532;13.348;2024-02-04T15:29:36;8.30;71.05
20862;DHT22;10591;52.532;13.348;2024-02-04T15:32:08;8.24;71.40
20862;DHT22;10591;52.532;13.348;2024-02-04T15:34:41;8.29;70.97
20862;DHT22;10591;52.532;13.348;2024-02-04T15:37:13;8.27;71.44
20862;DHT22;10591;52.532;13.348;2024-02-04T15:42:28;8.23;71.06
20862;DHT22;10591;52.532;13.348;2024-02-04T15:44:59;8.24;71.09
20862;DHT22;10591;52.532;13.348;2024-02-04T15:47:30;8.34;71.06
20862;DHT22;10591;52.532;13.348;2024-02-04T15:50:04;8.28;70.86
20862;DHT22;10591;52.532;13.348;2024-02-04T15:52:36;8.32;71.27
20862;DHT22;10591;52.532;13.348;2024-02-04T15:55:07;8.27;71.41
20862;DHT22;10591;52.532;13.348;2024-02-04T15:57:39;8.20;71.45
20862;DHT22;10591;52.532;13.348;2024-02-04T16:00:10;8.30;71.15
20862;DHT22;10591;52.532;13.348;2024-02-04T16:02:45;8.38;70.91
20862;DHT22;10591;52.532;13.348;2024-02-04T16:05:18;8.40;70.78
20862;DHT22;10591;52.532;13.348;2024-02-04T16:07:49;8.30;71.18
20862;DHT22;10591;52.532;13.348;2024-02-04T16:10:20;8.24;71.30